sensor_id;sensor_type;location;lat;lon;timestamp;pressure;altitude;pressure_sealevel;temperature;humidity
43488;BME280;29078;41.932;25.554;2023-03-15T00:00:07;98777.34;;;8.48;46.33
43488;BME280;29078;41.932;25.554;2023-03-15T00:02:36;98646.44;;;7.70;46.46
43488;BME280;29078;41.932;25.554;2023-03-15T00:05:02;98757.13;;;8.49;46.83
43488;BME280;29078;41.932;25.554;2023-03-15T00:07:28;98770.91;;;8.51;46.60
43488;BME280;29078;41.932;25.554;2023-03-15T00:09:53;98760.38;;;8.51;46.93
43488;BME280;29078;41.932;25.554;2023-03-15T00:12:19;98694.09;;;8.11;46.65
43488;BME280;29078;41.932;25.554;2023-03-15T00:14:49;98753.88;;;8.47;46.81
43488;BME280;29078;41.932;25.554;2023-03-15T00:17:14;98631.03;;;7.67;47.33
43488;BME280;29078;41.932;25.554;2023-03-15T00:19:40;98649.78;;;7.79;47.16
43488;BME280;29078;41.932;25.554;2023-03-15T00:22:05;98621.44;;;7.59;47.30
43488;BME280;29078;41.932;25.554;2023-03-15T00:24:31;98665.00;;;7.54;47.32
43488;BME280;29078;41.932;25.554;2023-03-15T00:26:56;98628.16;;;7.47;47.47
43488;BME280;29078;41.932;25.554;2023-03-15T00:29:22;98766.72;;;8.27;47.67
43488;BME280;29078;41.932;25.554;2023-03-15T00:31:47;98665.19;;;7.82;47.64
43488;BME280;29078;41.932;25.554;2023-03-15T00:34:12;98735.16;;;8.12;47.96
43488;BME280;29078;41.932;25.554;2023-03-15T00:36:38;98683.59;;;7.96;48.03
43488;BME280;29078;41.932;25.554;2023-03-15T00:39:07;98512.03;;;6.93;48.53
43488;BME280;29078;41.932;25.554;2023-03-15T00:41:33;98682.13;;;7.79;48.58
43488;BME280;29078;41.932;25.554;2023-03-15T00:43:58;98530.78;;;7.05;48.17
43488;BME280;29078;41.932;25.554;2023-03-15T00:46:24;98660.66;;;7.76;48.78
43488;BME280;29078;41.932;25.554;2023-03-15T00:48:50;98584.66;;;7.30;48.91
43488;BME280;29078;41.932;25.554;2023-03-15T00:51:18;98634.94;;;7.56;49.17
43488;BME280;29078;41.932;25.554;2023-03-15T00:53:46;98572.50;;;7.14;49.12
43488;BME280;29078;41.932;25.554;2023-03-15T00:56:14;98641.09;;;7.63;49.28
43488;BME280;29078;41.932;25.554;2023-03-15T00:58:40;98683.13;;;7.93;49.46
43488;BME280;29078;41.932;25.554;2023-03-15T01:01:17;98667.00;;;7.81;49.29
43488;BME280;29078;41.932;25.554;2023-03-15T01:03:44;98570.06;;;7.13;49.20
43488;BME280;29078;41.932;25.554;2023-03-15T01:06:18;98679.97;;;7.83;50.15
43488;BME280;29078;41.932;25.554;2023-03-15T01:08:44;98685.22;;;7.83;49.34
43488;BME280;29078;41.932;25.554;2023-03-15T01:11:13;98672.44;;;7.80;49.64
43488;BME280;29078;41.932;25.554;2023-03-15T01:13:39;98523.63;;;6.61;49.98
43488;BME280;29078;41.932;25.554;2023-03-15T01:16:06;98575.69;;;7.24;50.06
43488;BME280;29078;41.932;25.554;2023-03-15T01:18:32;98576.56;;;7.17;50.26
43488;BME280;29078;41.932;25.554;2023-03-15T01:20:58;98653.34;;;7.71;50.14
43488;BME280;29078;41.932;25.554;2023-03-15T01:23:24;98677.16;;;7.70;49.92
43488;BME280;29078;41.932;25.554;2023-03-15T01:25:49;98588.63;;;7.26;50.19
43488;BME280;29078;41.932;25.554;2023-03-15T01:28:15;98543.63;;;6.99;50.99
43488;BME280;29078;41.932;25.554;2023-03-15T01:30:47;98586.97;;;7.10;51.21
43488;BME280;29078;41.932;25.554;2023-03-15T01:33:13;98550.47;;;6.86;50.88
43488;BME280;29078;41.932;25.554;2023-03-15T01:35:38;98564.88;;;6.90;51.08
43488;BME280;29078;41.932;25.554;2023-03-15T01:38:04;98526.03;;;6.71;51.72
43488;BME280;29078;41.932;25.554;2023-03-15T01:40:30;98609.97;;;7.08;51.26
43488;BME280;29078;41.932;25.554;2023-03-15T01:48:22;98616.78;;;7.17;51.21
43488;BME280;29078;41.932;25.554;2023-03-15T01:50:49;98586.06;;;7.03;51.73
43488;BME280;29078;41.932;25.554;2023-03-15T01:53:15;98600.00;;;7.04;50.98
43488;BME280;29078;41.932;25.554;2023-03-15T01:55:41;98545.31;;;6.78;50.97
43488;BME280;29078;41.932;25.554;2023-03-15T01:58:08;98575.81;;;6.79;51.36
43488;BME280;29078;41.932;25.554;2023-03-15T02:00:34;98606.88;;;7.05;51.67
43488;BME280;29078;41.932;25.554;2023-03-15T02:03:11;98654.22;;;7.49;51.45
43488;BME280;29078;41.932;25.554;2023-03-15T02:05:48;98612.88;;;7.13;51.49
43488;BME280;29078;41.932;25.554;2023-03-15T02:08:21;98596.31;;;7.13;50.97
43488;BME280;29078;41.932;25.554;2023-03-15T02:10:52;98658.31;;;7.51;51.21
43488;BME280;29078;41.932;25.554;2023-03-15T02:13:22;98596.31;;;7.13;50.47
43488;BME280;29078;41.932;25.554;2023-03-15T02:15:49;98665.09;;;7.46;51.10
43488;BME280;29078;41.932;25.554;2023-03-15T02:18:18;98588.59;;;6.96;50.97
43488;BME280;29078;41.932;25.554;2023-03-15T02:20:52;98670.16;;;7.47;51.93
43488;BME280;29078;41.932;25.554;2023-03-15T02:23:22;98633.97;;;7.20;51.28
43488;BME280;29078;41.932;25.554;2023-03-15T02:28:47;98661.66;;;7.45;51.25
43488;BME280;29078;41.932;25.554;2023-03-15T02:31:14;98610.97;;;7.07;51.13
43488;BME280;29078;41.932;25.554;2023-03-15T02:33:53;98658.09;;;7.38;51.92
43488;BME280;29078;41.932;25.554;2023-03-15T02:36:26;98609.50;;;7.05;51.40
43488;BME280;29078;41.932;25.554;2023-03-15T02:38:53;98598.44;;;6.94;51.00
43488;BME280;29078;41.932;25.554;2023-03-15T02:41:34;98547.06;;;6.62;52.02
43488;BME280;29078;41.932;25.554;2023-03-15T02:44:06;98560.78;;;6.73;51.60
43488;BME280;29078;41.932;25.554;2023-03-15T02:46:32;98547.84;;;6.71;51.35
43488;BME280;29078;41.932;25.554;2023-03-15T02:48:59;98493.84;;;6.39;50.89
43488;BME280;29078;41.932;25.554;2023-03-15T02:51:27;98653.19;;;7.35;51.51
43488;BME280;29078;41.932;25.554;2023-03-15T02:53:52;98542.63;;;6.63;51.18
43488;BME280;29078;41.932;25.554;2023-03-15T02:56:18;98545.25;;;6.63;51.40
43488;BME280;29078;41.932;25.554;2023-03-15T02:58:44;98639.78;;;7.30;50.97
43488;BME280;29078;41.932;25.554;2023-03-15T03:01:14;98657.81;;;7.33;50.77
43488;BME280;29078;41.932;25.554;2023-03-15T03:03:41;98646.31;;;7.34;50.96
43488;BME280;29078;41.932;25.554;2023-03-15T03:06:07;98635.00;;;7.33;50.98
43488;BME280;29078;41.932;25.554;2023-03-15T03:08:33;98631.81;;;7.38;51.11
43488;BME280;29078;41.932;25.554;2023-03-15T03:10:58;98584.44;;;7.02;51.01
43488;BME280;29078;41.932;25.554;2023-03-15T03:13:24;98522.91;;;6.67;50.75
43488;BME280;29078;41.932;25.554;2023-03-15T03:15:49;98543.59;;;6.85;50.85
43488;BME280;29078;41.932;25.554;2023-03-15T03:18:31;98579.28;;;6.94;51.09
43488;BME280;29078;41.932;25.554;2023-03-15T03:21:04;98593.66;;;6.98;51.38
43488;BME280;29078;41.932;25.554;2023-03-15T03:23:30;98622.09;;;7.09;51.41
43488;BME280;29078;41.932;25.554;2023-03-15T03:25:57;98511.31;;;6.47;51.24
43488;BME280;29078;41.932;25.554;2023-03-15T03:28:25;98630.09;;;7.30;51.70
43488;BME280;29078;41.932;25.554;2023-03-15T03:30:51;98640.59;;;7.30;51.33
43488;BME280;29078;41.932;25.554;2023-03-15T03:33:18;98522.81;;;6.60;51.58
43488;BME280;29078;41.932;25.554;2023-03-15T03:35:43;98617.50;;;7.11;51.78
43488;BME280;29078;41.932;25.554;2023-03-15T03:38:10;98476.81;;;6.35;52.03
43488;BME280;29078;41.932;25.554;2023-03-15T03:40:37;98627.19;;;7.25;51.94
43488;BME280;29078;41.932;25.554;2023-03-15T03:43:03;98570.13;;;6.67;51.86
43488;BME280;29078;41.932;25.554;2023-03-15T03:45:28;98602.06;;;6.93;51.89
43488;BME280;29078;41.932;25.554;2023-03-15T03:47:54;98602.78;;;6.87;51.83
43488;BME280;29078;41.932;25.554;2023-03-15T03:50:19;98516.25;;;6.42;52.40
43488;BME280;29078;41.932;25.554;2023-03-15T03:52:45;98552.03;;;6.57;52.24
43488;BME280;29078;41.932;25.554;2023-03-15T03:55:11;98632.06;;;7.14;52.52
43488;BME280;29078;41.932;25.554;2023-03-15T03:57:39;98541.66;;;6.41;52.41
43488;BME280;29078;41.932;25.554;2023-03-15T04:00:06;98577.72;;;6.62;52.39
43488;BME280;29078;41.932;25.554;2023-03-15T04:02:33;98622.72;;;6.96;52.88
43488;BME280;29078;41.932;25.554;2023-03-15T04:04:58;98606.81;;;6.75;52.71
43488;BME280;29078;41.932;25.554;2023-03-15T04:07:23;98584.88;;;6.68;53.10
43488;BME280;29078;41.932;25.554;2023-03-15T04:09:49;98546.50;;;6.52;53.01
43488;BME280;29078;41.932;25.554;2023-03-15T04:12:15;98571.44;;;6.71;52.26
43488;BME280;29078;41.932;25.554;2023-03-15T04:14:40;98518.31;;;6.31;51.99
43488;BME280;29078;41.932;25.554;2023-03-15T04:17:06;98473.41;;;5.81;51.80
43488;BME280;29078;41.932;25.554;2023-03-15T04:19:33;98559.78;;;6.51;51.94
43488;BME280;29078;41.932;25.554;2023-03-15T04:21:58;98533.34;;;6.37;52.06
43488;BME280;29078;41.932;25.554;2023-03-15T04:24:23;98517.16;;;6.11;52.44
43488;BME280;29078;41.932;25.554;2023-03-15T04:26:49;98607.19;;;6.64;52.11
43488;BME280;29078;41.932;25.554;2023-03-15T04:29:14;98581.44;;;6.45;52.27
43488;BME280;29078;41.932;25.554;2023-03-15T04:31:40;98625.34;;;6.74;52.71
43488;BME280;29078;41.932;25.554;2023-03-15T04:34:07;98582.50;;;6.35;52.43
43488;BME280;29078;41.932;25.554;2023-03-15T04:36:33;98493.34;;;5.98;52.36
43488;BME280;29078;41.932;25.554;2023-03-15T04:38:58;98507.03;;;6.08;51.88
43488;BME280;29078;41.932;25.554;2023-03-15T04:41:32;98538.13;;;6.34;51.74
43488;BME280;29078;41.932;25.554;2023-03-15T04:43:59;98517.44;;;6.16;52.18
43488;BME280;29078;41.932;25.554;2023-03-15T04:46:25;98609.09;;;6.78;51.88
43488;BME280;29078;41.932;25.554;2023-03-15T04:48:50;98598.66;;;6.47;51.99
43488;BME280;29078;41.932;25.554;2023-03-15T04:51:15;98588.91;;;6.56;52.09
43488;BME280;29078;41.932;25.554;2023-03-15T04:53:41;98511.72;;;6.13;52.59
43488;BME280;29078;41.932;25.554;2023-03-15T04:56:06;98432.72;;;5.70;52.53
43488;BME280;29078;41.932;25.554;2023-03-15T04:58:32;98589.03;;;6.40;52.33
43488;BME280;29078;41.932;25.554;2023-03-15T05:00:57;98470.22;;;6.01;52.05
43488;BME280;29078;41.932;25.554;2023-03-15T05:03:22;98594.16;;;6.79;52.42
43488;BME280;29078;41.932;25.554;2023-03-15T05:05:48;98524.72;;;6.06;52.75
43488;BME280;29078;41.932;25.554;2023-03-15T05:08:13;98473.00;;;6.00;52.31
43488;BME280;29078;41.932;25.554;2023-03-15T05:10:38;98567.94;;;6.56;52.13
43488;BME280;29078;41.932;25.554;2023-03-15T05:13:04;98517.50;;;6.31;52.02
43488;BME280;29078;41.932;25.554;2023-03-15T05:15:29;98564.78;;;6.60;52.38
43488;BME280;29078;41.932;25.554;2023-03-15T05:17:55;98609.31;;;6.91;52.00
43488;BME280;29078;41.932;25.554;2023-03-15T05:20:20;98528.38;;;6.43;52.40
43488;BME280;29078;41.932;25.554;2023-03-15T05:22:46;98543.75;;;6.46;52.33
43488;BME280;29078;41.932;25.554;2023-03-15T05:25:12;98482.09;;;6.12;53.01
43488;BME280;29078;41.932;25.554;2023-03-15T05:27:40;98534.53;;;6.50;52.60
43488;BME280;29078;41.932;25.554;2023-03-15T05:30:06;98596.47;;;6.96;52.33
43488;BME280;29078;41.932;25.554;2023-03-15T05:32:32;98569.22;;;6.83;52.40
43488;BME280;29078;41.932;25.554;2023-03-15T05:35:04;98570.38;;;6.80;52.51
43488;BME280;29078;41.932;25.554;2023-03-15T05:37:30;98511.66;;;6.44;52.72
43488;BME280;29078;41.932;25.554;2023-03-15T05:39:57;98595.75;;;7.03;52.47
43488;BME280;29078;41.932;25.554;2023-03-15T05:42:23;98601.44;;;6.91;52.84
43488;BME280;29078;41.932;25.554;2023-03-15T05:44:55;98303.03;;;5.14;53.14
43488;BME280;29078;41.932;25.554;2023-03-15T05:47:21;98521.63;;;6.48;53.22
43488;BME280;29078;41.932;25.554;2023-03-15T05:49:47;98556.25;;;6.81;52.82
43488;BME280;29078;41.932;25.554;2023-03-15T05:52:13;98552.66;;;6.82;53.14
43488;BME280;29078;41.932;25.554;2023-03-15T05:54:38;98507.91;;;6.61;52.59
43488;BME280;29078;41.932;25.554;2023-03-15T05:57:04;98585.28;;;7.17;52.39
43488;BME280;29078;41.932;25.554;2023-03-15T05:59:29;98415.31;;;6.08;52.32
43488;BME280;29078;41.932;25.554;2023-03-15T06:01:55;98551.84;;;6.96;52.70
43488;BME280;29078;41.932;25.554;2023-03-15T06:04:21;98618.59;;;7.31;52.41
43488;BME280;29078;41.932;25.554;2023-03-15T06:06:47;98541.63;;;6.87;52.69
43488;BME280;29078;41.932;25.554;2023-03-15T06:09:12;98484.53;;;6.51;52.80
43488;BME280;29078;41.932;25.554;2023-03-15T06:11:37;98500.75;;;6.55;52.81
43488;BME280;29078;41.932;25.554;2023-03-15T06:14:03;98522.91;;;6.67;52.52
43488;BME280;29078;41.932;25.554;2023-03-15T06:16:28;98568.38;;;6.82;53.11
43488;BME280;29078;41.932;25.554;2023-03-15T06:18:54;98506.09;;;6.61;53.23
43488;BME280;29078;41.932;25.554;2023-03-15T06:21:19;98490.06;;;6.56;52.80
43488;BME280;29078;41.932;25.554;2023-03-15T06:23:45;98514.00;;;6.76;52.78
43488;BME280;29078;41.932;25.554;2023-03-15T06:26:10;98498.44;;;6.75;53.05
43488;BME280;29078;41.932;25.554;2023-03-15T06:28:35;98403.22;;;6.22;52.58
43488;BME280;29078;41.932;25.554;2023-03-15T06:31:08;98486.50;;;6.72;52.78
43488;BME280;29078;41.932;25.554;2023-03-15T06:33:34;98589.81;;;7.38;53.26
43488;BME280;29078;41.932;25.554;2023-03-15T06:36:00;98553.69;;;7.11;52.94
43488;BME280;29078;41.932;25.554;2023-03-15T06:38:25;98530.13;;;7.03;52.69
43488;BME280;29078;41.932;25.554;2023-03-15T06:40:50;98465.03;;;6.68;52.52
43488;BME280;29078;41.932;25.554;2023-03-15T06:43:16;98518.09;;;6.93;52.44
43488;BME280;29078;41.932;25.554;2023-03-15T06:45:45;98509.22;;;6.94;52.69
43488;BME280;29078;41.932;25.554;2023-03-15T06:48:12;98554.31;;;7.27;52.68
43488;BME280;29078;41.932;25.554;2023-03-15T06:50:38;98502.91;;;7.04;52.19
43488;BME280;29078;41.932;25.554;2023-03-15T06:53:03;98598.06;;;7.64;52.07
43488;BME280;29078;41.932;25.554;2023-03-15T06:55:29;98535.56;;;7.30;51.73
43488;BME280;29078;41.932;25.554;2023-03-15T06:57:57;98507.06;;;7.13;51.94
43488;BME280;29078;41.932;25.554;2023-03-15T07:00:23;98494.03;;;7.19;52.41
43488;BME280;29078;41.932;25.554;2023-03-15T07:02:48;98560.28;;;7.65;52.20
43488;BME280;29078;41.932;25.554;2023-03-15T07:05:14;98546.44;;;7.57;51.78
43488;BME280;29078;41.932;25.554;2023-03-15T07:07:40;98531.03;;;7.69;51.42
43488;BME280;29078;41.932;25.554;2023-03-15T07:10:06;98596.19;;;8.09;51.70
43488;BME280;29078;41.932;25.554;2023-03-15T07:12:31;98602.44;;;8.08;51.88
43488;BME280;29078;41.932;25.554;2023-03-15T07:14:57;98589.59;;;7.98;51.08
43488;BME280;29078;41.932;25.554;2023-03-15T07:17:22;98549.41;;;7.69;51.21
43488;BME280;29078;41.932;25.554;2023-03-15T07:19:47;98619.78;;;8.03;51.59
43488;BME280;29078;41.932;25.554;2023-03-15T07:22:13;98558.84;;;7.63;51.79
43488;BME280;29078;41.932;25.554;2023-03-15T07:24:38;98533.31;;;7.42;51.80
43488;BME280;29078;41.932;25.554;2023-03-15T07:27:04;98306.97;;;6.01;52.26
43488;BME280;29078;41.932;25.554;2023-03-15T07:29:30;98574.34;;;7.58;52.21
43488;BME280;29078;41.932;25.554;2023-03-15T07:31:55;98590.81;;;7.81;52.70
43488;BME280;29078;41.932;25.554;2023-03-15T07:34:21;98590.53;;;7.76;52.37
43488;BME280;29078;41.932;25.554;2023-03-15T07:36:46;98593.97;;;7.77;52.46
43488;BME280;29078;41.932;25.554;2023-03-15T07:39:12;98478.38;;;7.11;53.29
43488;BME280;29078;41.932;25.554;2023-03-15T07:41:37;98558.84;;;7.63;52.17
43488;BME280;29078;41.932;25.554;2023-03-15T07:44:03;98489.31;;;7.29;52.95
43488;BME280;29078;41.932;25.554;2023-03-15T07:46:28;98468.13;;;7.31;52.10
43488;BME280;29078;41.932;25.554;2023-03-15T07:48:54;98543.88;;;7.78;52.33
43488;BME280;29078;41.932;25.554;2023-03-15T07:51:20;98445.31;;;7.31;52.29
43488;BME280;29078;41.932;25.554;2023-03-15T07:53:46;98533.94;;;7.95;51.80
43488;BME280;29078;41.932;25.554;2023-03-15T07:56:11;98531.47;;;7.72;52.21
43488;BME280;29078;41.932;25.554;2023-03-15T07:58:36;98455.03;;;7.67;51.75
43488;BME280;29078;41.932;25.554;2023-03-15T08:01:02;98447.41;;;7.72;51.71
43488;BME280;29078;41.932;25.554;2023-03-15T08:03:27;98560.38;;;8.66;51.33
43488;BME280;29078;41.932;25.554;2023-03-15T08:05:52;98424.00;;;7.98;51.06
43488;BME280;29078;41.932;25.554;2023-03-15T08:08:18;98420.19;;;8.01;50.95
43488;BME280;29078;41.932;25.554;2023-03-15T08:10:44;98480.84;;;8.42;51.04
43488;BME280;29078;41.932;25.554;2023-03-15T08:13:11;98488.13;;;8.68;50.62
43488;BME280;29078;41.932;25.554;2023-03-15T08:15:36;98427.88;;;8.45;50.59
43488;BME280;29078;41.932;25.554;2023-03-15T08:18:02;98456.59;;;8.75;50.52
43488;BME280;29078;41.932;25.554;2023-03-15T08:20:27;98210.63;;;7.32;50.35
43488;BME280;29078;41.932;25.554;2023-03-15T08:22:53;98519.19;;;9.42;49.85
43488;BME280;29078;41.932;25.554;2023-03-15T08:25:21;98393.44;;;8.75;49.52
43488;BME280;29078;41.932;25.554;2023-03-15T08:27:48;98422.44;;;9.22;49.35
43488;BME280;29078;41.932;25.554;2023-03-15T08:30:14;98533.44;;;10.08;48.99
43488;BME280;29078;41.932;25.554;2023-03-15T08:32:41;98497.53;;;10.07;48.61
43488;BME280;29078;41.932;25.554;2023-03-15T08:35:08;98500.84;;;10.36;48.72
43488;BME280;29078;41.932;25.554;2023-03-15T08:37:34;98500.47;;;10.59;48.35
43488;BME280;29078;41.932;25.554;2023-03-15T08:39:59;98461.47;;;10.54;48.13
43488;BME280;29078;41.932;25.554;2023-03-15T08:42:36;98367.50;;;9.94;47.55
43488;BME280;29078;41.932;25.554;2023-03-15T08:45:06;98426.97;;;10.49;47.29
43488;BME280;29078;41.932;25.554;2023-03-15T08:47:33;98493.72;;;11.02;47.20
43488;BME280;29078;41.932;25.554;2023-03-15T08:50:10;98481.91;;;11.05;47.55
43488;BME280;29078;41.932;25.554;2023-03-15T08:52:36;98449.47;;;10.78;47.11
43488;BME280;29078;41.932;25.554;2023-03-15T08:55:02;98319.41;;;9.98;47.30
43488;BME280;29078;41.932;25.554;2023-03-15T08:57:29;98375.22;;;10.28;47.36
43488;BME280;29078;41.932;25.554;2023-03-15T08:59:57;98309.69;;;9.92;47.75
43488;BME280;29078;41.932;25.554;2023-03-15T09:02:23;98364.06;;;10.26;47.19
43488;BME280;29078;41.932;25.554;2023-03-15T09:04:49;98462.25;;;10.94;47.29
43488;BME280;29078;41.932;25.554;2023-03-15T09:07:14;98398.16;;;10.54;47.46
43488;BME280;29078;41.932;25.554;2023-03-15T09:09:40;98406.84;;;10.68;46.90
43488;BME280;29078;41.932;25.554;2023-03-15T09:12:06;98385.91;;;10.79;47.15
43488;BME280;29078;41.932;25.554;2023-03-15T09:14:32;98342.81;;;10.86;46.52
43488;BME280;29078;41.932;25.554;2023-03-15T09:16:57;98438.41;;;11.65;46.35
43488;BME280;29078;41.932;25.554;2023-03-15T09:19:22;98413.53;;;11.80;45.69
43488;BME280;29078;41.932;25.554;2023-03-15T09:21:48;98329.19;;;11.65;44.82
43488;BME280;29078;41.932;25.554;2023-03-15T09:24:13;98383.91;;;12.27;44.56
43488;BME280;29078;41.932;25.554;2023-03-15T09:26:39;98322.63;;;12.05;44.28
43488;BME280;29078;41.932;25.554;2023-03-15T09:29:05;98433.22;;;12.90;44.20
43488;BME280;29078;41.932;25.554;2023-03-15T09:31:32;98351.00;;;12.60;43.59
43488;BME280;29078;41.932;25.554;2023-03-15T09:33:58;98311.50;;;12.40;43.62
43488;BME280;29078;41.932;25.554;2023-03-15T09:36:24;98286.63;;;12.23;43.62
43488;BME280;29078;41.932;25.554;2023-03-15T09:38:49;98403.50;;;13.06;43.45
43488;BME280;29078;41.932;25.554;2023-03-15T09:41:39;98404.19;;;13.20;43.03
43488;BME280;29078;41.932;25.554;2023-03-15T09:49:43;98407.84;;;13.37;42.70
43488;BME280;29078;41.932;25.554;2023-03-15T09:55:04;98342.84;;;12.98;43.10
43488;BME280;29078;41.932;25.554;2023-03-15T09:57:52;98398.94;;;13.50;42.62
43488;BME280;29078;41.932;25.554;2023-03-15T10:00:30;98297.19;;;13.14;43.05
43488;BME280;29078;41.932;25.554;2023-03-15T10:03:00;98395.78;;;14.13;42.17
43488;BME280;29078;41.932;25.554;2023-03-15T10:05:40;98277.81;;;13.85;41.75
43488;BME280;29078;41.932;25.554;2023-03-15T10:08:15;98294.78;;;14.19;41.15
43488;BME280;29078;41.932;25.554;2023-03-15T10:11:21;98377.91;;;14.90;40.39
43488;BME280;29078;41.932;25.554;2023-03-15T10:16:48;98358.69;;;15.40;40.16
43488;BME280;29078;41.932;25.554;2023-03-15T10:21:57;98360.06;;;15.42;39.07
43488;BME280;29078;41.932;25.554;2023-03-15T10:26:58;98357.25;;;15.49;38.99
43488;BME280;29078;41.932;25.554;2023-03-15T10:29:30;98284.78;;;14.85;39.54
43488;BME280;29078;41.932;25.554;2023-03-15T10:31:56;98300.94;;;14.95;39.39
43488;BME280;29078;41.932;25.554;2023-03-15T10:34:22;98303.84;;;14.82;39.45
43488;BME280;29078;41.932;25.554;2023-03-15T10:36:50;98221.75;;;14.17;39.38
43488;BME280;29078;41.932;25.554;2023-03-15T10:39:20;98292.91;;;14.67;39.40
43488;BME280;29078;41.932;25.554;2023-03-15T10:41:48;98242.75;;;14.18;38.69
43488;BME280;29078;41.932;25.554;2023-03-15T10:44:23;98303.78;;;14.65;37.62
43488;BME280;29078;41.932;25.554;2023-03-15T10:47:13;98268.78;;;14.56;37.71
43488;BME280;29078;41.932;25.554;2023-03-15T10:49:43;98078.97;;;13.67;36.83
43488;BME280;29078;41.932;25.554;2023-03-15T10:52:32;98315.38;;;15.27;35.29
43488;BME280;29078;41.932;25.554;2023-03-15T10:57:37;98202.75;;;14.88;34.97
43488;BME280;29078;41.932;25.554;2023-03-15T11:00:17;98292.03;;;15.46;34.69
43488;BME280;29078;41.932;25.554;2023-03-15T11:03:00;98254.28;;;15.16;34.05
43488;BME280;29078;41.932;25.554;2023-03-15T11:05:47;98165.88;;;14.63;33.64
43488;BME280;29078;41.932;25.554;2023-03-15T11:08:18;98247.25;;;15.10;34.39
43488;BME280;29078;41.932;25.554;2023-03-15T11:10:55;98277.91;;;15.29;32.61
43488;BME280;29078;41.932;25.554;2023-03-15T11:13:27;98186.03;;;14.76;32.05
43488;BME280;29078;41.932;25.554;2023-03-15T11:15:59;98272.69;;;15.34;31.46
43488;BME280;29078;41.932;25.554;2023-03-15T11:18:36;98264.31;;;15.42;31.45
43488;BME280;29078;41.932;25.554;2023-03-15T11:21:11;98264.16;;;15.49;30.54
43488;BME280;29078;41.932;25.554;2023-03-15T11:23:40;98200.06;;;15.17;30.13
43488;BME280;29078;41.932;25.554;2023-03-15T11:26:14;98243.66;;;15.61;30.53
43488;BME280;29078;41.932;25.554;2023-03-15T11:28:45;98140.44;;;14.96;30.31
43488;BME280;29078;41.932;25.554;2023-03-15T11:31:11;98124.97;;;14.93;30.05
43488;BME280;29078;41.932;25.554;2023-03-15T11:33:44;98221.56;;;15.61;30.42
43488;BME280;29078;41.932;25.554;2023-03-15T11:36:15;98186.13;;;15.26;31.05
43488;BME280;29078;41.932;25.554;2023-03-15T11:38:43;98239.78;;;15.85;30.53
43488;BME280;29078;41.932;25.554;2023-03-15T11:41:38;98206.72;;;15.81;28.32
43488;BME280;29078;41.932;25.554;2023-03-15T11:44:31;98241.81;;;16.17;28.61
43488;BME280;29078;41.932;25.554;2023-03-15T11:47:01;98231.03;;;16.29;26.99
43488;BME280;29078;41.932;25.554;2023-03-15T11:49:53;98110.03;;;15.59;26.88
43488;BME280;29078;41.932;25.554;2023-03-15T11:52:21;98223.94;;;16.56;27.00
43488;BME280;29078;41.932;25.554;2023-03-15T11:54:48;98103.03;;;15.92;27.23
43488;BME280;29078;41.932;25.554;2023-03-15T11:57:41;98199.56;;;16.42;25.23
43488;BME280;29078;41.932;25.554;2023-03-15T12:00:25;98215.78;;;16.63;26.06
43488;BME280;29078;41.932;25.554;2023-03-15T12:03:27;98214.84;;;16.52;25.86
43488;BME280;29078;41.932;25.554;2023-03-15T12:06:12;98195.56;;;16.23;25.94
43488;BME280;29078;41.932;25.554;2023-03-15T12:08:58;98157.56;;;15.89;25.96
43488;BME280;29078;41.932;25.554;2023-03-15T12:16:22;98128.19;;;15.62;24.79
43488;BME280;29078;41.932;25.554;2023-03-15T12:18:49;98159.38;;;15.83;24.78
43488;BME280;29078;41.932;25.554;2023-03-15T12:21:55;98172.00;;;15.93;24.39
43488;BME280;29078;41.932;25.554;2023-03-15T12:24:25;98214.94;;;16.18;23.87
43488;BME280;29078;41.932;25.554;2023-03-15T12:27:02;98211.03;;;16.04;23.17
43488;BME280;29078;41.932;25.554;2023-03-15T12:29:30;98221.59;;;15.99;23.52
43488;BME280;29078;41.932;25.554;2023-03-15T12:37:00;98135.97;;;15.52;23.06
43488;BME280;29078;41.932;25.554;2023-03-15T12:42:02;98187.53;;;15.79;26.54
43488;BME280;29078;41.932;25.554;2023-03-15T12:47:01;98223.19;;;15.62;31.19
43488;BME280;29078;41.932;25.554;2023-03-15T12:49:38;98189.91;;;15.47;31.41
43488;BME280;29078;41.932;25.554;2023-03-15T12:54:46;98205.72;;;15.54;32.20
43488;BME280;29078;41.932;25.554;2023-03-15T12:57:19;98215.38;;;15.43;32.77
43488;BME280;29078;41.932;25.554;2023-03-15T12:59:58;98212.06;;;15.36;33.88
43488;BME280;29078;41.932;25.554;2023-03-15T13:05:23;98143.41;;;15.00;35.16
43488;BME280;29078;41.932;25.554;2023-03-15T13:08:02;98202.97;;;15.49;34.90
43488;BME280;29078;41.932;25.554;2023-03-15T13:15:36;98163.63;;;15.34;34.77
43488;BME280;29078;41.932;25.554;2023-03-15T13:18:17;98228.97;;;15.75;36.25
43488;BME280;29078;41.932;25.554;2023-03-15T13:21:08;98220.34;;;15.68;37.26
43488;BME280;29078;41.932;25.554;2023-03-15T13:23:36;98187.97;;;15.43;36.33
43488;BME280;29078;41.932;25.554;2023-03-15T13:26:30;98217.13;;;15.66;36.44
43488;BME280;29078;41.932;25.554;2023-03-15T13:29:02;98224.09;;;15.55;36.78
43488;BME280;29078;41.932;25.554;2023-03-15T13:31:32;98126.19;;;14.74;36.80
43488;BME280;29078;41.932;25.554;2023-03-15T13:34:20;98231.16;;;15.33;37.34
43488;BME280;29078;41.932;25.554;2023-03-15T13:36:52;98230.09;;;15.17;37.02
43488;BME280;29078;41.932;25.554;2023-03-15T13:39:26;98153.00;;;14.72;37.25
43488;BME280;29078;41.932;25.554;2023-03-15T13:42:03;98236.38;;;15.11;38.18
43488;BME280;29078;41.932;25.554;2023-03-15T13:44:30;98249.34;;;15.08;37.83
43488;BME280;29078;41.932;25.554;2023-03-15T13:46:57;98244.75;;;15.03;37.58
43488;BME280;29078;41.932;25.554;2023-03-15T13:49:23;98174.13;;;14.50;37.88
43488;BME280;29078;41.932;25.554;2023-03-15T13:51:50;98250.44;;;14.95;37.97
43488;BME280;29078;41.932;25.554;2023-03-15T13:54:35;98234.50;;;14.83;38.34
43488;BME280;29078;41.932;25.554;2023-03-15T13:57:17;98249.41;;;14.96;38.15
43488;BME280;29078;41.932;25.554;2023-03-15T13:59:49;98250.44;;;14.95;37.93